Time;durP1;ratioP1;P1;durP2;ratioP2;P2;SDS_P1;SDS_P2;PMS_P1;PMS_P2;Temp;Humidity;BMP_temperature;BMP_pressure;BME280_temperature;BME280_humidity;BME280_pressure;Samples;Min_cycle;Max_cycle;Signal;HPM_P1;HPM_P2
2022/11/08 00:02:43;;;;;;;13.43;2.22;;;;;;;;;;5014626;28;20578;-73
2022/11/08 00:16:07;;;;;;;12.52;2.65;;;;;;;;;;5014753;28;20141;-72
2022/11/08 00:18:34;;;;;;;12.20;1.70;;;;;;;;;;5014612;28;20026;-72
2022/11/08 00:21:01;;;;;;;10.75;1.90;;;;;;;;;;5014756;28;20022;-73
2022/11/08 00:23:27;;;;;;;11.43;2.15;;;;;;;;;;5030704;28;20044;-72
2022/11/08 00:25:53;;;;;;;11.10;1.88;;;;;;;;;;5016753;28;20049;-72
2022/11/08 00:28:20;;;;;;;7.57;1.95;;;;;;;;;;5022325;28;20056;-72
2022/11/08 00:30:46;;;;;;;12.07;1.70;;;;;;;;;;5025005;28;20029;-72
2022/11/08 00:33:12;;;;;;;12.18;2.17;;;;;;;;;;5014117;28;20091;-72
2022/11/08 00:35:38;;;;;;;10.60;1.67;;;;;;;;;;5022582;28;20038;-72
2022/11/08 00:38:04;;;;;;;11.07;1.95;;;;;;;;;;5033685;28;20037;-72
2022/11/08 00:40:30;;;;;;;7.68;1.80;;;;;;;;;;5033617;28;20021;-73
2022/11/08 00:42:56;;;;;;;8.13;1.98;;;;;;;;;;5034092;28;20083;-72
2022/11/08 00:45:22;;;;;;;15.90;3.55;;;;;;;;;;5016162;28;20017;-72
2022/11/08 00:47:48;;;;;;;11.27;1.75;;;;;;;;;;5033721;28;20025;-73
2022/11/08 00:50:14;;;;;;;8.25;1.98;;;;;;;;;;5033588;28;20060;-72
2022/11/08 00:52:40;;;;;;;14.10;2.10;;;;;;;;;;5033625;28;20156;-72
2022/11/08 00:55:06;;;;;;;7.65;1.85;;;;;;;;;;5034178;28;20065;-72
2022/11/08 00:57:32;;;;;;;6.28;1.58;;;;;;;;;;5015485;28;20048;-72
2022/11/08 00:59:58;;;;;;;10.90;1.98;;;;;;;;;;5033492;28;20026;-72
2022/11/08 01:02:24;;;;;;;8.90;2.05;;;;;;;;;;5033155;28;20498;-72
2022/11/08 01:04:50;;;;;;;13.68;1.88;;;;;;;;;;5033478;28;20025;-72
2022/11/08 01:07:16;;;;;;;18.38;2.30;;;;;;;;;;5033424;28;20029;-72
2022/11/08 01:09:42;;;;;;;10.02;2.25;;;;;;;;;;5032575;28;20025;-72
2022/11/08 01:12:08;;;;;;;11.35;2.50;;;;;;;;;;5033332;28;20033;-72
2022/11/08 01:14:34;;;;;;;11.88;2.00;;;;;;;;;;5033292;28;20029;-72
2022/11/08 01:17:00;;;;;;;9.10;1.88;;;;;;;;;;5021904;28;20041;-72
2022/11/08 01:19:26;;;;;;;13.70;2.47;;;;;;;;;;5013306;28;20026;-72
2022/11/08 01:21:52;;;;;;;7.65;2.42;;;;;;;;;;5020094;28;20021;-72
2022/11/08 01:24:20;;;;;;;12.63;2.38;;;;;;;;;;5023939;28;20034;-72
2022/11/08 01:26:46;;;;;;;13.95;2.20;;;;;;;;;;5013358;28;20034;-73
2022/11/08 01:29:12;;;;;;;10.98;2.38;;;;;;;;;;5013130;28;20107;-72
2022/11/08 01:31:38;;;;;;;8.13;1.85;;;;;;;;;;5012300;28;20099;-72
2022/11/08 01:34:04;;;;;;;13.65;2.10;;;;;;;;;;5032731;28;20036;-72
2022/11/08 01:36:30;;;;;;;12.02;2.13;;;;;;;;;;5016543;28;20500;-73
2022/11/08 01:38:56;;;;;;;6.63;1.88;;;;;;;;;;4995688;28;20040;-73
2022/11/08 01:41:23;;;;;;;12.93;2.20;;;;;;;;;;5031721;28;20021;-72
2022/11/08 01:43:56;;;;;;;13.70;2.20;;;;;;;;;;5032853;28;20029;-72
2022/11/08 01:46:29;;;;;;;11.75;2.22;;;;;;;;;;5032652;28;20025;-72
2022/11/08 01:49:14;;;;;;;14.65;1.98;;;;;;;;;;5014764;28;20025;-72
2022/11/08 01:51:43;;;;;;;9.35;2.28;;;;;;;;;;5014639;28;20133;-72
2022/11/08 01:54:13;;;;;;;10.30;2.50;;;;;;;;;;5014300;28;20033;-72
2022/11/08 01:56:40;;;;;;;10.10;2.10;;;;;;;;;;5032528;28;20095;-72
2022/11/08 01:59:08;;;;;;;13.10;2.45;;;;;;;;;;5014272;28;20029;-72
2022/11/08 02:01:34;;;;;;;11.80;2.38;;;;;;;;;;5032352;28;20033;-72
2022/11/08 02:04:00;;;;;;;10.52;2.15;;;;;;;;;;5032153;28;20025;-72
2022/11/08 02:06:27;;;;;;;9.15;2.10;;;;;;;;;;5032301;28;20166;-72
2022/11/08 02:08:54;;;;;;;14.15;2.50;;;;;;;;;;4998024;28;20053;-72
2022/11/08 02:11:20;;;;;;;9.38;2.22;;;;;;;;;;5032074;28;20384;-73
2022/11/08 02:13:46;;;;;;;10.57;2.72;;;;;;;;;;5032225;28;20121;-72
2022/11/08 02:16:13;;;;;;;9.35;2.40;;;;;;;;;;5031843;28;20044;-72
2022/11/08 02:18:39;;;;;;;10.35;2.50;;;;;;;;;;5032126;28;20029;-73
2022/11/08 02:21:15;;;;;;;9.75;2.60;;;;;;;;;;5012725;28;20072;-74
2022/11/08 02:23:44;;;;;;;9.60;2.55;;;;;;;;;;5028590;28;20033;-73
2022/11/08 02:26:11;;;;;;;12.63;2.92;;;;;;;;;;5031826;28;20017;-73
2022/11/08 02:28:40;;;;;;;12.80;2.20;;;;;;;;;;5017318;28;20033;-72
2022/11/08 02:31:14;;;;;;;10.93;2.58;;;;;;;;;;5027192;28;20021;-72
2022/11/08 02:33:41;;;;;;;12.25;2.50;;;;;;;;;;5012005;28;20030;-72
2022/11/08 02:36:07;;;;;;;7.40;2.13;;;;;;;;;;5025214;28;20018;-72
2022/11/08 02:38:37;;;;;;;11.57;2.55;;;;;;;;;;5031544;28;20040;-72
2022/11/08 02:41:03;;;;;;;10.27;2.58;;;;;;;;;;5015518;28;20492;-72
2022/11/08 02:43:29;;;;;;;14.13;2.33;;;;;;;;;;5011976;28;20026;-72
2022/11/08 02:45:57;;;;;;;7.63;2.85;;;;;;;;;;5011944;28;20499;-72
2022/11/08 02:48:23;;;;;;;12.77;2.67;;;;;;;;;;5026000;28;20029;-72
2022/11/08 02:50:49;;;;;;;10.52;2.28;;;;;;;;;;5013971;28;20037;-72
2022/11/08 02:53:15;;;;;;;13.05;2.65;;;;;;;;;;5031887;28;20036;-73
2022/11/08 02:55:41;;;;;;;9.27;2.50;;;;;;;;;;5013838;28;20037;-72
2022/11/08 02:58:07;;;;;;;12.05;2.80;;;;;;;;;;5031794;28;20030;-72
2022/11/08 03:00:33;;;;;;;11.65;2.47;;;;;;;;;;5013458;28;20410;-73
2022/11/08 03:02:59;;;;;;;11.52;2.47;;;;;;;;;;5031746;28;20476;-73
2022/11/08 03:05:26;;;;;;;9.50;2.75;;;;;;;;;;5031141;28;20033;-72
2022/11/08 03:07:53;;;;;;;9.15;2.65;;;;;;;;;;5031494;28;20022;-72
2022/11/08 03:10:19;;;;;;;13.30;2.20;;;;;;;;;;5031400;28;20048;-72
2022/11/08 03:12:45;;;;;;;11.07;2.90;;;;;;;;;;5031451;28;20030;-73
2022/11/08 03:15:12;;;;;;;15.32;3.38;;;;;;;;;;5013608;28;20147;-72
2022/11/08 03:17:39;;;;;;;13.65;2.72;;;;;;;;;;5031074;28;20032;-73
2022/11/08 03:20:06;;;;;;;11.77;3.42;;;;;;;;;;5031223;28;20026;-72
2022/11/08 03:22:32;;;;;;;7.63;2.08;;;;;;;;;;5029402;28;20427;-73
2022/11/08 03:24:58;;;;;;;11.40;2.58;;;;;;;;;;5013683;28;20461;-72
2022/11/08 03:27:25;;;;;;;11.45;2.50;;;;;;;;;;5016074;28;20468;-73
2022/11/08 03:29:51;;;;;;;12.25;2.72;;;;;;;;;;5029894;28;20045;-72
2022/11/08 03:32:17;;;;;;;6.35;2.60;;;;;;;;;;5023780;28;20072;-73
2022/11/08 03:34:43;;;;;;;12.05;2.63;;;;;;;;;;5034730;28;20392;-72
2022/11/08 03:37:09;;;;;;;12.20;2.53;;;;;;;;;;5017668;28;20038;-72
2022/11/08 03:39:36;;;;;;;7.68;2.17;;;;;;;;;;5034782;28;20061;-72
2022/11/08 03:42:03;;;;;;;11.85;3.28;;;;;;;;;;5035281;28;20032;-72
2022/11/08 03:44:29;;;;;;;13.80;2.28;;;;;;;;;;5017101;28;20113;-72
2022/11/08 03:46:56;;;;;;;8.55;2.08;;;;;;;;;;5017451;28;20033;-72
2022/11/08 03:49:22;;;;;;;7.85;2.30;;;;;;;;;;5034951;28;20050;-72
2022/11/08 03:51:48;;;;;;;12.30;2.50;;;;;;;;;;5034744;28;20030;-72
2022/11/08 03:54:14;;;;;;;8.48;1.90;;;;;;;;;;5035017;28;20099;-72
2022/11/08 03:56:40;;;;;;;6.10;1.92;;;;;;;;;;5034676;28;20109;-72
2022/11/08 03:59:06;;;;;;;4.22;1.50;;;;;;;;;;5035049;28;20038;-72
2022/11/08 04:01:32;;;;;;;11.77;2.33;;;;;;;;;;5034408;28;20018;-72
2022/11/08 04:03:58;;;;;;;8.48;2.20;;;;;;;;;;5034944;28;20033;-72
2022/11/08 04:06:24;;;;;;;7.45;3.05;;;;;;;;;;5000242;28;20030;-72
2022/11/08 04:08:50;;;;;;;11.95;2.20;;;;;;;;;;5034708;28;20072;-72
2022/11/08 04:16:45;;;;;;;9.23;2.78;;;;;;;;;;5019458;28;20045;-72
2022/11/08 04:21:56;;;;;;;8.93;2.40;;;;;;;;;;5032638;28;20039;-72
2022/11/08 04:24:22;;;;;;;6.43;1.98;;;;;;;;;;5013398;28;20446;-73
2022/11/08 04:26:48;;;;;;;13.38;2.88;;;;;;;;;;5034265;28;20033;-73
2022/11/08 04:29:14;;;;;;;10.23;2.65;;;;;;;;;;5019875;28;20053;-72
2022/11/08 04:31:41;;;;;;;14.18;2.17;;;;;;;;;;5033886;28;20025;-72
2022/11/08 04:34:07;;;;;;;7.50;2.42;;;;;;;;;;4998281;28;20030;-72
2022/11/08 04:36:33;;;;;;;17.95;2.53;;;;;;;;;;5013346;28;20115;-72
2022/11/08 04:38:59;;;;;;;5.00;2.58;;;;;;;;;;5034137;28;20412;-73
2022/11/08 04:41:26;;;;;;;5.07;2.22;;;;;;;;;;5033664;28;20036;-72
2022/11/08 04:43:53;;;;;;;5.13;2.20;;;;;;;;;;5015864;28;20028;-72
2022/11/08 04:46:21;;;;;;;9.20;2.33;;;;;;;;;;5033697;28;20025;-72
2022/11/08 04:48:49;;;;;;;11.77;2.10;;;;;;;;;;5033722;28;20104;-72
2022/11/08 04:51:18;;;;;;;12.07;2.58;;;;;;;;;;5015901;28;20026;-72
2022/11/08 04:53:44;;;;;;;8.57;2.08;;;;;;;;;;5042033;28;20472;-72
2022/11/08 04:56:12;;;;;;;10.68;1.55;;;;;;;;;;5053390;28;20021;-72
2022/11/08 04:58:39;;;;;;;8.65;1.45;;;;;;;;;;5053605;28;20107;-74
2022/11/08 05:01:06;;;;;;;7.05;1.60;;;;;;;;;;5053495;28;20021;-72
2022/11/08 05:03:32;;;;;;;3.58;1.50;;;;;;;;;;5035641;28;20040;-72
2022/11/08 05:06:02;;;;;;;7.40;1.40;;;;;;;;;;5035351;28;20033;-73
2022/11/08 05:08:28;;;;;;;5.95;1.50;;;;;;;;;;5053527;28;20025;-73
2022/11/08 05:10:59;;;;;;;8.95;2.30;;;;;;;;;;5035402;28;20082;-72
2022/11/08 05:13:25;;;;;;;5.90;1.67;;;;;;;;;;5035574;28;20462;-72
2022/11/08 05:15:51;;;;;;;7.60;1.45;;;;;;;;;;5050125;28;20045;-72
2022/11/08 05:18:17;;;;;;;6.72;1.65;;;;;;;;;;5033423;28;20076;-72
2022/11/08 05:23:28;;;;;;;4.97;1.50;;;;;;;;;;5030601;28;20047;-72
2022/11/08 05:25:55;;;;;;;6.55;1.35;;;;;;;;;;5015351;28;20056;-72
2022/11/08 05:28:21;;;;;;;6.60;1.70;;;;;;;;;;5002538;28;20691;-72
2022/11/08 05:30:54;;;;;;;5.13;1.17;;;;;;;;;;5013883;28;20418;-72
2022/11/08 05:33:21;;;;;;;7.43;1.30;;;;;;;;;;5015302;28;20029;-72
2022/11/08 05:35:47;;;;;;;7.75;1.40;;;;;;;;;;5021516;28;20037;-73
2022/11/08 05:38:13;;;;;;;6.20;1.52;;;;;;;;;;5013130;28;20496;-72
2022/11/08 05:40:39;;;;;;;5.65;1.50;;;;;;;;;;5026937;28;20045;-73
2022/11/08 05:43:05;;;;;;;7.95;1.85;;;;;;;;;;5015101;28;20044;-72
2022/11/08 05:45:31;;;;;;;7.28;1.73;;;;;;;;;;5032841;28;20022;-72
2022/11/08 05:48:02;;;;;;;5.70;1.83;;;;;;;;;;5032515;28;20109;-72
2022/11/08 05:50:29;;;;;;;6.28;1.42;;;;;;;;;;5015605;28;20033;-72
2022/11/08 05:52:55;;;;;;;4.97;1.48;;;;;;;;;;5032710;28;20049;-72
2022/11/08 05:55:21;;;;;;;6.85;1.75;;;;;;;;;;5031957;28;20044;-72
2022/11/08 05:57:47;;;;;;;6.82;1.80;;;;;;;;;;5032608;28;20475;-72
2022/11/08 06:00:13;;;;;;;5.53;1.95;;;;;;;;;;5014623;28;20136;-72
2022/11/08 06:02:40;;;;;;;5.18;1.70;;;;;;;;;;5032598;28;20022;-72
2022/11/08 06:05:06;;;;;;;3.50;1.23;;;;;;;;;;5032261;28;20053;-72
2022/11/08 06:07:32;;;;;;;7.03;1.90;;;;;;;;;;5032456;28;20022;-73
2022/11/08 06:09:58;;;;;;;7.13;1.85;;;;;;;;;;5032274;28;20048;-72
2022/11/08 06:12:24;;;;;;;8.25;1.92;;;;;;;;;;5032255;28;20039;-73
2022/11/08 06:14:50;;;;;;;9.68;1.85;;;;;;;;;;5032346;28;20079;-72
2022/11/08 06:17:16;;;;;;;7.45;1.73;;;;;;;;;;5031923;28;20034;-72
2022/11/08 06:19:43;;;;;;;6.57;1.73;;;;;;;;;;5032091;28;20480;-72
2022/11/08 06:22:09;;;;;;;5.70;1.77;;;;;;;;;;5012264;28;20021;-72
2022/11/08 06:24:35;;;;;;;5.53;2.00;;;;;;;;;;5014530;28;20022;-72
2022/11/08 06:27:02;;;;;;;7.25;2.55;;;;;;;;;;5031814;28;20491;-72
2022/11/08 06:29:28;;;;;;;5.68;1.88;;;;;;;;;;5011779;28;20045;-73
2022/11/08 06:31:54;;;;;;;6.95;1.88;;;;;;;;;;5018582;28;20026;-72
2022/11/08 06:34:20;;;;;;;7.97;2.00;;;;;;;;;;5024172;28;20689;-72
2022/11/08 06:36:46;;;;;;;4.82;1.42;;;;;;;;;;5031586;28;20111;-72
2022/11/08 06:39:12;;;;;;;6.03;1.50;;;;;;;;;;5031622;28;20026;-72
2022/11/08 06:41:38;;;;;;;7.28;1.75;;;;;;;;;;5014257;28;20029;-72
2022/11/08 06:44:04;;;;;;;4.50;1.77;;;;;;;;;;5013558;28;20029;-74
2022/11/08 06:46:30;;;;;;;7.43;1.65;;;;;;;;;;5031330;28;20033;-72
2022/11/08 06:48:57;;;;;;;5.85;1.50;;;;;;;;;;5031174;28;20033;-72
2022/11/08 06:51:23;;;;;;;8.13;1.70;;;;;;;;;;5031488;28;20082;-72
2022/11/08 06:53:49;;;;;;;4.30;1.52;;;;;;;;;;5031580;28;20041;-72
2022/11/08 06:56:15;;;;;;;4.75;1.40;;;;;;;;;;5031550;28;20030;-73
2022/11/08 06:58:41;;;;;;;7.07;2.00;;;;;;;;;;5013636;28;20036;-73
2022/11/08 07:01:09;;;;;;;6.32;1.65;;;;;;;;;;5031228;28;20310;-73
2022/11/08 07:03:35;;;;;;;7.75;2.00;;;;;;;;;;5031507;28;20097;-72
2022/11/08 07:06:02;;;;;;;6.72;1.92;;;;;;;;;;5013764;28;20030;-73
2022/11/08 07:08:28;;;;;;;7.45;2.00;;;;;;;;;;5034010;28;20424;-72
2022/11/08 07:10:54;;;;;;;6.95;1.83;;;;;;;;;;5017957;28;20107;-73
2022/11/08 07:13:20;;;;;;;6.10;1.88;;;;;;;;;;5042870;28;20048;-72
2022/11/08 07:15:46;;;;;;;7.70;1.85;;;;;;;;;;5050571;28;20646;-72
2022/11/08 07:18:14;;;;;;;5.55;1.85;;;;;;;;;;5015662;28;20076;-73
2022/11/08 07:20:40;;;;;;;4.80;1.90;;;;;;;;;;5015548;28;20029;-72
2022/11/08 07:23:07;;;;;;;3.85;1.73;;;;;;;;;;5015853;28;20033;-72
2022/11/08 07:25:33;;;;;;;6.13;1.52;;;;;;;;;;5034794;28;20037;-73
2022/11/08 07:28:00;;;;;;;6.70;2.90;;;;;;;;;;5023862;28;20083;-74
2022/11/08 07:30:26;;;;;;;6.70;1.77;;;;;;;;;;5006540;28;20045;-72
2022/11/08 07:32:54;;;;;;;9.85;2.60;;;;;;;;;;5027224;28;20025;-72
2022/11/08 07:35:20;;;;;;;5.15;1.63;;;;;;;;;;5025873;28;20029;-72
2022/11/08 07:37:46;;;;;;;4.95;1.60;;;;;;;;;;5024751;28;20101;-73
2022/11/08 07:40:12;;;;;;;4.63;1.50;;;;;;;;;;5025197;28;20373;-72
2022/11/08 07:42:39;;;;;;;6.40;1.60;;;;;;;;;;5025812;28;20472;-72
2022/11/08 07:45:05;;;;;;;4.45;1.40;;;;;;;;;;5011634;28;20017;-72
2022/11/08 07:47:31;;;;;;;3.53;1.52;;;;;;;;;;5027182;28;20029;-72
2022/11/08 07:49:58;;;;;;;6.90;1.98;;;;;;;;;;5000878;28;20076;-72
2022/11/08 07:52:24;;;;;;;6.95;2.00;;;;;;;;;;5018663;28;20082;-73
2022/11/08 07:54:50;;;;;;;5.57;2.58;;;;;;;;;;5019000;28;20104;-72
2022/11/08 07:57:16;;;;;;;5.95;1.80;;;;;;;;;;5001274;28;20097;-72
2022/11/08 07:59:42;;;;;;;35.15;13.15;;;;;;;;;;5018325;28;20101;-72
2022/11/08 08:02:11;;;;;;;10.18;2.58;;;;;;;;;;5018496;28;20044;-73
2022/11/08 08:04:37;;;;;;;11.50;2.40;;;;;;;;;;5025254;28;20486;-72
2022/11/08 08:07:03;;;;;;;5.20;1.52;;;;;;;;;;5014302;28;20021;-72
2022/11/08 08:09:29;;;;;;;6.63;1.63;;;;;;;;;;5031733;28;20491;-73
2022/11/08 08:11:56;;;;;;;5.43;1.70;;;;;;;;;;5031970;28;20032;-73
2022/11/08 08:14:22;;;;;;;3.85;1.42;;;;;;;;;;5030176;28;20363;-72
2022/11/08 08:16:48;;;;;;;4.88;1.40;;;;;;;;;;5031116;28;20041;-72
2022/11/08 08:19:14;;;;;;;4.28;1.67;;;;;;;;;;5013250;28;20036;-72
2022/11/08 08:21:40;;;;;;;11.05;2.35;;;;;;;;;;5027306;28;20026;-72
2022/11/08 08:24:06;;;;;;;3.30;1.50;;;;;;;;;;5012144;28;20392;-73
2022/11/08 08:26:32;;;;;;;5.28;1.73;;;;;;;;;;5029104;28;20053;-72
2022/11/08 08:28:58;;;;;;;6.03;1.90;;;;;;;;;;5024305;28;20476;-72
2022/11/08 08:31:24;;;;;;;4.80;1.80;;;;;;;;;;5028135;28;20076;-72
2022/11/08 08:33:50;;;;;;;3.55;1.60;;;;;;;;;;5022756;28;20055;-72
2022/11/08 08:36:16;;;;;;;4.32;1.90;;;;;;;;;;5026729;28;20431;-72
2022/11/08 08:38:42;;;;;;;5.00;1.95;;;;;;;;;;5023861;28;20088;-72
2022/11/08 08:41:08;;;;;;;4.68;1.70;;;;;;;;;;5027141;28;20021;-72
2022/11/08 08:43:34;;;;;;;5.40;2.33;;;;;;;;;;5007019;28;20037;-73
2022/11/08 08:46:01;;;;;;;6.45;2.10;;;;;;;;;;5022978;28;20018;-72
2022/11/08 08:48:27;;;;;;;5.05;1.85;;;;;;;;;;5028773;28;20033;-72
2022/11/08 08:50:53;;;;;;;9.45;3.13;;;;;;;;;;5013864;28;20022;-72
2022/11/08 08:53:19;;;;;;;5.22;1.45;;;;;;;;;;5013839;28;20104;-72
2022/11/08 08:55:46;;;;;;;5.70;1.90;;;;;;;;;;5040870;28;20033;-72
2022/11/08 08:58:13;;;;;;;6.72;2.28;;;;;;;;;;5031408;28;20041;-72
2022/11/08 09:00:39;;;;;;;3.63;1.80;;;;;;;;;;5033407;28;20030;-72
2022/11/08 09:03:09;;;;;;;5.35;2.47;;;;;;;;;;5033648;28;20083;-72
2022/11/08 09:05:36;;;;;;;4.35;1.50;;;;;;;;;;5032799;28;20502;-72
2022/11/08 09:08:02;;;;;;;6.47;1.70;;;;;;;;;;5033687;28;20034;-72
2022/11/08 09:10:29;;;;;;;3.58;1.55;;;;;;;;;;5018089;28;20077;-72
2022/11/08 09:12:55;;;;;;;7.82;1.58;;;;;;;;;;5023188;28;20026;-72
2022/11/08 09:15:21;;;;;;;4.63;1.95;;;;;;;;;;5023549;28;20025;-72
2022/11/08 09:17:47;;;;;;;6.32;1.70;;;;;;;;;;5022287;28;20025;-72
2022/11/08 09:20:13;;;;;;;5.70;1.33;;;;;;;;;;5001442;28;20459;-72
2022/11/08 09:22:40;;;;;;;2.65;1.38;;;;;;;;;;5026244;28;20018;-72
2022/11/08 09:25:06;;;;;;;5.15;1.50;;;;;;;;;;5027792;28;20391;-72
2022/11/08 09:27:32;;;;;;;5.25;1.38;;;;;;;;;;5023988;28;20044;-72
2022/11/08 09:29:58;;;;;;;3.58;1.48;;;;;;;;;;5030457;28;20487;-72
2022/11/08 09:32:27;;;;;;;8.63;1.50;;;;;;;;;;5015024;28;20037;-72
2022/11/08 09:34:54;;;;;;;5.20;1.70;;;;;;;;;;4999770;28;20112;-72
2022/11/08 09:37:20;;;;;;;6.00;1.88;;;;;;;;;;5015364;28;20041;-72
2022/11/08 09:39:46;;;;;;;3.53;1.50;;;;;;;;;;5032820;28;20061;-72
2022/11/08 09:42:30;;;;;;;7.13;1.42;;;;;;;;;;5023080;28;20021;-71
2022/11/08 09:44:56;;;;;;;4.10;1.63;;;;;;;;;;5021083;28;20026;-72
2022/11/08 09:47:23;;;;;;;2.55;1.40;;;;;;;;;;5023528;28;20632;-72
2022/11/08 09:49:58;;;;;;;6.28;1.65;;;;;;;;;;5024025;28;20028;-72
2022/11/08 09:52:26;;;;;;;5.97;1.23;;;;;;;;;;5021828;28;20080;-72
2022/11/08 09:55:00;;;;;;;5.45;1.60;;;;;;;;;;5027597;28;20032;-73
2022/11/08 09:57:29;;;;;;;6.40;1.40;;;;;;;;;;5020903;28;20125;-71
2022/11/08 09:59:58;;;;;;;5.82;1.38;;;;;;;;;;5031810;28;20030;-71
2022/11/08 10:02:26;;;;;;;5.45;1.63;;;;;;;;;;5031198;28;20035;-72
2022/11/08 10:04:57;;;;;;;4.13;1.17;;;;;;;;;;5017855;28;20038;-72
2022/11/08 10:07:46;;;;;;;4.90;1.20;;;;;;;;;;4993763;28;20408;-72
2022/11/08 10:10:18;;;;;;;3.58;1.55;;;;;;;;;;5003681;28;20052;-72
2022/11/08 10:12:44;;;;;;;;;;;;;;;;;;5012354;28;20029;-72
2022/11/08 10:15:16;;;;;;;2.35;1.15;;;;;;;;;;5012357;28;20542;-72
2022/11/08 10:17:42;;;;;;;4.03;1.35;;;;;;;;;;5012158;28;20480;-72
2022/11/08 10:20:31;;;;;;;4.05;1.50;;;;;;;;;;5012256;28;20445;-72
2022/11/08 10:23:16;;;;;;;2.30;1.20;;;;;;;;;;5026983;28;20021;-72
2022/11/08 10:25:46;;;;;;;4.45;1.42;;;;;;;;;;5012141;28;20040;-72
2022/11/08 10:28:15;;;;;;;13.20;1.73;;;;;;;;;;5024404;28;20033;-72
2022/11/08 10:30:42;;;;;;;5.00;1.92;;;;;;;;;;5027124;28;20065;-72
2022/11/08 10:33:20;;;;;;;3.38;1.30;;;;;;;;;;4994610;28;20152;-72
2022/11/08 10:35:47;;;;;;;6.82;1.48;;;;;;;;;;5023967;28;20113;-72
2022/11/08 10:38:18;;;;;;;6.68;1.80;;;;;;;;;;5031926;28;20034;-72
2022/11/08 10:41:05;;;;;;;7.97;1.67;;;;;;;;;;5037854;28;20101;-72
2022/11/08 10:43:35;;;;;;;3.38;1.30;;;;;;;;;;5041234;28;20038;-72
2022/11/08 10:46:01;;;;;;;6.05;1.77;;;;;;;;;;5051300;28;20082;-72
2022/11/08 10:48:27;;;;;;;5.18;1.30;;;;;;;;;;5017225;28;20072;-72
2022/11/08 10:50:54;;;;;;;3.75;1.42;;;;;;;;;;5031475;28;20084;-73
2022/11/08 10:53:20;;;;;;;2.80;1.50;;;;;;;;;;5013776;28;20618;-72
2022/11/08 10:55:47;;;;;;;4.38;1.70;;;;;;;;;;5042598;28;20068;-72
2022/11/08 10:58:25;;;;;;;3.60;1.30;;;;;;;;;;5038822;28;20044;-72
2022/11/08 11:01:02;;;;;;;3.60;1.17;;;;;;;;;;5031280;28;20024;-72
2022/11/08 11:03:29;;;;;;;2.65;1.20;;;;;;;;;;5031358;28;20026;-72
2022/11/08 11:05:59;;;;;;;5.57;1.70;;;;;;;;;;5031374;28;20028;-72
2022/11/08 11:08:26;;;;;;;3.30;1.30;;;;;;;;;;5025497;28;20100;-72
2022/11/08 11:10:52;;;;;;;4.30;1.10;;;;;;;;;;5001982;28;20033;-73
2022/11/08 11:13:20;;;;;;;7.75;1.55;;;;;;;;;;5013098;28;20123;-72
2022/11/08 11:15:56;;;;;;;3.00;1.40;;;;;;;;;;5013886;28;20030;-72
2022/11/08 11:18:27;;;;;;;7.72;0.90;;;;;;;;;;5013359;28;20025;-72
2022/11/08 11:21:14;;;;;;;3.22;1.35;;;;;;;;;;5026761;28;20033;-72
2022/11/08 11:23:43;;;;;;;5.38;1.65;;;;;;;;;;5030438;28;20025;-73
2022/11/08 11:26:18;;;;;;;3.90;1.70;;;;;;;;;;5015503;28;20385;-72
2022/11/08 11:29:03;;;;;;;3.42;1.17;;;;;;;;;;4997125;28;20030;-72
2022/11/08 11:31:29;;;;;;;4.60;1.30;;;;;;;;;;5019509;28;20025;-72
2022/11/08 11:33:56;;;;;;;3.25;1.30;;;;;;;;;;4999798;28;20072;-73
2022/11/08 11:36:24;;;;;;;5.85;1.52;;;;;;;;;;5022732;28;20034;-73
2022/11/08 11:39:28;;;;;;;2.92;1.20;;;;;;;;;;5022652;28;20464;-72
2022/11/08 11:42:04;;;;;;;7.60;1.40;;;;;;;;;;4970467;28;20027;-75
2022/11/08 11:44:35;;;;;;;7.25;1.13;;;;;;;;;;4970382;28;20042;-75
2022/11/08 11:47:01;;;;;;;5.47;1.20;;;;;;;;;;5004885;28;20033;-76
2022/11/08 11:49:28;;;;;;;3.78;1.20;;;;;;;;;;5013316;28;20034;-75
2022/11/08 11:51:55;;;;;;;4.53;1.40;;;;;;;;;;5024618;28;20380;-75
2022/11/08 11:54:29;;;;;;;6.40;1.30;;;;;;;;;;5002400;28;20073;-76
2022/11/08 11:57:08;;;;;;;6.63;1.23;;;;;;;;;;5016191;28;20029;-78
2022/11/08 11:59:46;;;;;;;3.95;1.02;;;;;;;;;;5034059;28;20032;-77
2022/11/08 12:02:21;;;;;;;5.93;1.10;;;;;;;;;;5034167;28;20022;-73
2022/11/08 12:04:47;;;;;;;4.88;1.20;;;;;;;;;;5034690;28;20022;-75
2022/11/08 12:07:19;;;;;;;4.63;1.48;;;;;;;;;;5016884;28;20025;-75
2022/11/08 12:10:04;;;;;;;4.30;1.27;;;;;;;;;;5011619;28;20030;-75
2022/11/08 12:12:33;;;;;;;9.32;1.45;;;;;;;;;;5015075;28;20499;-76
2022/11/08 12:15:22;;;;;;;4.88;1.20;;;;;;;;;;5031570;28;20026;-75
2022/11/08 12:17:57;;;;;;;4.07;1.23;;;;;;;;;;5018949;28;20084;-76
2022/11/08 12:20:33;;;;;;;7.18;1.40;;;;;;;;;;5022765;28;20504;-76
2022/11/08 12:23:18;;;;;;;5.75;1.35;;;;;;;;;;5027736;28;20022;-77
2022/11/08 12:25:44;;;;;;;2.83;1.10;;;;;;;;;;5030031;28;20379;-78
2022/11/08 12:28:13;;;;;;;4.80;1.00;;;;;;;;;;5021086;28;20022;-76
2022/11/08 12:30:54;;;;;;;4.00;1.33;;;;;;;;;;5024228;28;20041;-77
2022/11/08 12:33:20;;;;;;;4.00;1.00;;;;;;;;;;4997445;28;20026;-77
2022/11/08 12:36:09;;;;;;;5.15;1.25;;;;;;;;;;5027378;28;20307;-77
2022/11/08 12:38:38;;;;;;;5.72;1.50;;;;;;;;;;5016298;28;20136;-76
2022/11/08 12:41:04;;;;;;;4.38;1.15;;;;;;;;;;5032841;28;20030;-76
2022/11/08 12:43:50;;;;;;;3.13;1.27;;;;;;;;;;5032706;28;20025;-76
2022/11/08 12:46:17;;;;;;;3.53;1.27;;;;;;;;;;5033829;28;20033;-75
2022/11/08 12:48:47;;;;;;;4.68;1.15;;;;;;;;;;5010112;28;20029;-76
2022/11/08 12:51:33;;;;;;;7.50;1.80;;;;;;;;;;5006725;28;20022;-75
2022/11/08 12:54:06;;;;;;;3.15;1.30;;;;;;;;;;5003930;28;20032;-75
2022/11/08 12:56:37;;;;;;;7.50;1.60;;;;;;;;;;5006883;28;20026;-75
2022/11/08 12:59:05;;;;;;;7.20;1.67;;;;;;;;;;5013482;28;20463;-74
2022/11/08 13:01:32;;;;;;;6.03;1.25;;;;;;;;;;5012630;28;20026;-76
2022/11/08 13:04:04;;;;;;;3.78;1.20;;;;;;;;;;4995568;28;20555;-75
2022/11/08 13:06:38;;;;;;;5.88;1.42;;;;;;;;;;5012204;28;20022;-75
2022/11/08 13:09:13;;;;;;;8.38;1.20;;;;;;;;;;4996059;28;20072;-75
2022/11/08 13:11:55;;;;;;;4.78;1.40;;;;;;;;;;4995845;28;20022;-75
2022/11/08 13:14:21;;;;;;;3.05;1.30;;;;;;;;;;5013815;28;20018;-75
2022/11/08 13:17:06;;;;;;;3.55;1.30;;;;;;;;;;5013730;28;20026;-75
2022/11/08 13:19:50;;;;;;;2.88;1.42;;;;;;;;;;5013408;28;20048;-75
2022/11/08 13:22:28;;;;;;;3.75;1.20;;;;;;;;;;5026173;28;20021;-75
2022/11/08 13:24:57;;;;;;;4.97;1.30;;;;;;;;;;5029273;28;20044;-75
2022/11/08 13:27:30;;;;;;;3.80;1.35;;;;;;;;;;5008835;28;20026;-75
2022/11/08 13:30:00;;;;;;;8.73;1.80;;;;;;;;;;5026468;28;20045;-75
2022/11/08 13:32:34;;;;;;;6.43;1.23;;;;;;;;;;5033255;28;20048;-75
2022/11/08 13:35:07;;;;;;;5.43;1.25;;;;;;;;;;5026193;28;20060;-75
2022/11/08 13:37:48;;;;;;;5.03;1.40;;;;;;;;;;5000842;28;20034;-75
2022/11/08 13:40:17;;;;;;;2.80;1.30;;;;;;;;;;5025277;28;20085;-75
2022/11/08 13:42:49;;;;;;;6.15;1.30;;;;;;;;;;5015327;28;20029;-75
2022/11/08 13:45:15;;;;;;;;;;;;;;;;;;5033099;28;20022;-75
2022/11/08 13:47:41;;;;;;;9.38;1.40;;;;;;;;;;5021985;28;20375;-75
2022/11/08 13:50:26;;;;;;;7.00;1.30;;;;;;;;;;4995184;28;20496;-75
2022/11/08 13:53:11;;;;;;;8.02;1.58;;;;;;;;;;4995362;28;20021;-75
2022/11/08 13:55:43;;;;;;;8.23;1.50;;;;;;;;;;5012816;28;20038;-75
2022/11/08 13:58:09;;;;;;;;;;;;;;;;;;5013239;28;20053;-75
2022/11/08 14:00:44;;;;;;;2.97;1.23;;;;;;;;;;5012493;28;19971;-75
2022/11/08 14:03:28;;;;;;;9.77;1.33;;;;;;;;;;5012908;28;20040;-75
2022/11/08 14:05:56;;;;;;;2.97;1.38;;;;;;;;;;5012238;28;20128;-75
2022/11/08 14:08:23;;;;;;;8.82;1.58;;;;;;;;;;5012594;28;20385;-75
2022/11/08 14:11:04;;;;;;;6.47;1.40;;;;;;;;;;5012269;28;20053;-75
2022/11/08 14:13:33;;;;;;;2.63;1.20;;;;;;;;;;4994527;28;20068;-75
2022/11/08 14:16:20;;;;;;;4.28;1.48;;;;;;;;;;5011723;28;20017;-75
2022/11/08 14:18:46;;;;;;;6.45;1.73;;;;;;;;;;5012214;28;20030;-75
2022/11/08 14:21:17;;;;;;;4.47;1.55;;;;;;;;;;4998289;28;20086;-75
2022/11/08 14:23:44;;;;;;;3.97;1.00;;;;;;;;;;5028669;28;20041;-75
2022/11/08 14:26:12;;;;;;;3.58;1.30;;;;;;;;;;5011936;28;20479;-75
2022/11/08 14:28:41;;;;;;;4.80;1.50;;;;;;;;;;5026968;28;20389;-75
2022/11/08 14:31:21;;;;;;;5.63;1.25;;;;;;;;;;5023082;28;20030;-75
2022/11/08 14:33:47;;;;;;;7.43;1.75;;;;;;;;;;4994767;28;20057;-75
2022/11/08 14:36:15;;;;;;;2.92;1.40;;;;;;;;;;5028318;28;20021;-75
2022/11/08 14:38:49;;;;;;;5.85;1.40;;;;;;;;;;5032085;28;20040;-75
2022/11/08 14:41:16;;;;;;;4.43;1.20;;;;;;;;;;5011761;28;20033;-75
2022/11/08 14:43:43;;;;;;;5.22;1.45;;;;;;;;;;5012178;28;20026;-75
2022/11/08 14:46:14;;;;;;;4.35;1.40;;;;;;;;;;5011538;28;20055;-75
2022/11/08 14:48:48;;;;;;;3.55;1.17;;;;;;;;;;5026150;28;20037;-75
2022/11/08 14:51:14;;;;;;;3.60;1.30;;;;;;;;;;5006628;28;20483;-75
2022/11/08 14:53:45;;;;;;;8.65;1.13;;;;;;;;;;5005393;28;20697;-75
2022/11/08 14:56:11;;;;;;;7.88;1.30;;;;;;;;;;5019312;28;20018;-75
2022/11/08 14:58:37;;;;;;;3.65;1.50;;;;;;;;;;5003396;28;20040;-75
2022/11/08 15:01:04;;;;;;;5.60;1.40;;;;;;;;;;5024099;28;20033;-75
2022/11/08 15:03:31;;;;;;;4.07;1.40;;;;;;;;;;5019502;28;20076;-74
2022/11/08 15:05:58;;;;;;;4.15;1.33;;;;;;;;;;5001812;28;20022;-74
2022/11/08 15:08:45;;;;;;;6.13;1.30;;;;;;;;;;5021264;28;20713;-74
2022/11/08 15:11:26;;;;;;;6.78;1.42;;;;;;;;;;5022010;28;20014;-74
2022/11/08 15:13:53;;;;;;;5.32;1.10;;;;;;;;;;5012923;28;20117;-74